HARTSFIELD - JACKSON ATLANTA INTL

KATL (ATL)
Atlanta, Georgia
Towered

Vatsim Metar:
KATL 250852Z 27008KT 10SM FEW060 FEW140 SCT200 BKN250 22/19 A3002 RMK AO2 SLP155 T02170189 53012

No ATC Online

Traffic

Inbound:
Ident
Type
Name
ETA
Phase
KAL081
A359/L
Won Hee CHO
10:23 Z
Descent

Outbound:
Ident
Type
Name
Destination
Phase